sensor_id;sensor_type;location;lat;lon;timestamp;temperature;humidity
8896;DHT22;4484;48.928;10.066;2023-12-29T00:01:38;7.70;99.90
8896;DHT22;4484;48.928;10.066;2023-12-29T00:04:05;7.80;99.90
8896;DHT22;4484;48.928;10.066;2023-12-29T00:06:32;7.80;99.90
8896;DHT22;4484;48.928;10.066;2023-12-29T00:08:59;7.80;99.90
8896;DHT22;4484;48.928;10.066;2023-12-29T00:11:27;7.80;99.90
8896;DHT22;4484;48.928;10.066;2023-12-29T00:13:53;7.80;99.90
8896;DHT22;4484;48.928;10.066;2023-12-29T00:16:20;7.80;99.90
8896;DHT22;4484;48.928;10.066;2023-12-29T00:18:47;7.80;99.90
8896;DHT22;4484;48.928;10.066;2023-12-29T00:21:14;7.90;99.90
8896;DHT22;4484;48.928;10.066;2023-12-29T00:23:44;7.90;99.90
8896;DHT22;4484;48.928;10.066;2023-12-29T00:26:11;8.00;99.90
8896;DHT22;4484;48.928;10.066;2023-12-29T00:28:38;8.00;99.90
8896;DHT22;4484;48.928;10.066;2023-12-29T00:31:07;8.00;99.90
8896;DHT22;4484;48.928;10.066;2023-12-29T00:33:34;8.00;99.90
8896;DHT22;4484;48.928;10.066;2023-12-29T00:36:01;8.00;99.90
8896;DHT22;4484;48.928;10.066;2023-12-29T00:38:29;8.00;99.90
8896;DHT22;4484;48.928;10.066;2023-12-29T00:40:56;8.00;99.90
8896;DHT22;4484;48.928;10.066;2023-12-29T00:43:23;8.10;99.90
8896;DHT22;4484;48.928;10.066;2023-12-29T00:45:50;8.10;99.90
8896;DHT22;4484;48.928;10.066;2023-12-29T00:48:17;8.20;99.90
8896;DHT22;4484;48.928;10.066;2023-12-29T00:50:45;8.20;99.90
8896;DHT22;4484;48.928;10.066;2023-12-29T00:53:12;8.20;99.90
8896;DHT22;4484;48.928;10.066;2023-12-29T00:55:39;8.20;99.90
8896;DHT22;4484;48.928;10.066;2023-12-29T00:58:06;8.30;99.90
8896;DHT22;4484;48.928;10.066;2023-12-29T01:00:32;8.30;99.90
8896;DHT22;4484;48.928;10.066;2023-12-29T01:03:00;8.30;99.90
8896;DHT22;4484;48.928;10.066;2023-12-29T01:05:27;8.30;99.90
8896;DHT22;4484;48.928;10.066;2023-12-29T01:07:54;8.20;99.90
8896;DHT22;4484;48.928;10.066;2023-12-29T01:10:21;8.20;99.90
8896;DHT22;4484;48.928;10.066;2023-12-29T01:12:48;8.20;99.90
8896;DHT22;4484;48.928;10.066;2023-12-29T01:15:15;8.20;99.90
8896;DHT22;4484;48.928;10.066;2023-12-29T01:17:42;8.20;99.90
8896;DHT22;4484;48.928;10.066;2023-12-29T01:20:09;8.20;99.90
8896;DHT22;4484;48.928;10.066;2023-12-29T01:22:36;8.10;99.90
8896;DHT22;4484;48.928;10.066;2023-12-29T01:25:03;8.10;99.90
8896;DHT22;4484;48.928;10.066;2023-12-29T01:27:30;8.10;99.90
8896;DHT22;4484;48.928;10.066;2023-12-29T01:29:57;8.10;99.90
8896;DHT22;4484;48.928;10.066;2023-12-29T01:32:24;8.10;99.90
8896;DHT22;4484;48.928;10.066;2023-12-29T01:34:55;8.10;99.90
8896;DHT22;4484;48.928;10.066;2023-12-29T01:37:21;8.10;99.90
8896;DHT22;4484;48.928;10.066;2023-12-29T01:39:48;8.10;99.90
8896;DHT22;4484;48.928;10.066;2023-12-29T01:42:15;8.20;99.90
8896;DHT22;4484;48.928;10.066;2023-12-29T01:44:42;8.20;99.90
8896;DHT22;4484;48.928;10.066;2023-12-29T01:47:14;8.20;99.90
8896;DHT22;4484;48.928;10.066;2023-12-29T01:49:46;8.10;99.90
8896;DHT22;4484;48.928;10.066;2023-12-29T01:52:16;8.20;99.90
8896;DHT22;4484;48.928;10.066;2023-12-29T01:54:46;8.20;99.90
8896;DHT22;4484;48.928;10.066;2023-12-29T01:57:14;8.30;99.90
8896;DHT22;4484;48.928;10.066;2023-12-29T01:59:41;8.30;99.90
8896;DHT22;4484;48.928;10.066;2023-12-29T02:02:10;8.30;99.90
8896;DHT22;4484;48.928;10.066;2023-12-29T02:04:38;8.40;99.90
8896;DHT22;4484;48.928;10.066;2023-12-29T02:07:07;8.40;99.90
8896;DHT22;4484;48.928;10.066;2023-12-29T02:09:34;8.40;99.90
8896;DHT22;4484;48.928;10.066;2023-12-29T02:12:02;8.40;99.90
8896;DHT22;4484;48.928;10.066;2023-12-29T02:14:29;8.30;99.90
8896;DHT22;4484;48.928;10.066;2023-12-29T02:17:13;8.30;99.90
8896;DHT22;4484;48.928;10.066;2023-12-29T02:19:47;8.30;99.90
8896;DHT22;4484;48.928;10.066;2023-12-29T02:22:16;8.30;99.90
8896;DHT22;4484;48.928;10.066;2023-12-29T02:24:45;8.30;99.90
8896;DHT22;4484;48.928;10.066;2023-12-29T02:30:13;8.30;99.90
8896;DHT22;4484;48.928;10.066;2023-12-29T02:32:43;8.30;99.90
8896;DHT22;4484;48.928;10.066;2023-12-29T02:35:16;8.30;99.90
8896;DHT22;4484;48.928;10.066;2023-12-29T02:37:46;8.30;99.90
8896;DHT22;4484;48.928;10.066;2023-12-29T02:40:14;8.30;99.90
8896;DHT22;4484;48.928;10.066;2023-12-29T02:42:49;8.30;99.90
8896;DHT22;4484;48.928;10.066;2023-12-29T02:45:17;8.20;99.90
8896;DHT22;4484;48.928;10.066;2023-12-29T02:47:44;8.20;99.90
8896;DHT22;4484;48.928;10.066;2023-12-29T02:50:12;8.20;99.90
8896;DHT22;4484;48.928;10.066;2023-12-29T02:52:39;8.30;99.90
8896;DHT22;4484;48.928;10.066;2023-12-29T02:55:06;8.30;99.90
8896;DHT22;4484;48.928;10.066;2023-12-29T02:57:33;8.20;99.90
8896;DHT22;4484;48.928;10.066;2023-12-29T03:00:00;8.30;99.90
8896;DHT22;4484;48.928;10.066;2023-12-29T03:02:27;8.30;99.90
8896;DHT22;4484;48.928;10.066;2023-12-29T03:04:54;8.30;99.90
8896;DHT22;4484;48.928;10.066;2023-12-29T03:07:21;8.30;99.90
8896;DHT22;4484;48.928;10.066;2023-12-29T03:09:48;8.30;99.90
8896;DHT22;4484;48.928;10.066;2023-12-29T03:12:15;8.30;99.90
8896;DHT22;4484;48.928;10.066;2023-12-29T03:14:42;8.20;99.90
8896;DHT22;4484;48.928;10.066;2023-12-29T03:17:09;8.20;99.90
8896;DHT22;4484;48.928;10.066;2023-12-29T03:19:36;8.20;99.90
8896;DHT22;4484;48.928;10.066;2023-12-29T03:22:03;8.20;99.90
8896;DHT22;4484;48.928;10.066;2023-12-29T03:24:30;8.10;99.90
8896;DHT22;4484;48.928;10.066;2023-12-29T03:26:57;8.10;99.90
8896;DHT22;4484;48.928;10.066;2023-12-29T03:29:24;8.00;99.90
8896;DHT22;4484;48.928;10.066;2023-12-29T03:31:52;8.10;99.90
8896;DHT22;4484;48.928;10.066;2023-12-29T03:34:19;8.10;99.90
8896;DHT22;4484;48.928;10.066;2023-12-29T03:36:47;8.10;99.90
8896;DHT22;4484;48.928;10.066;2023-12-29T03:39:14;8.10;99.90
8896;DHT22;4484;48.928;10.066;2023-12-29T03:41:41;8.10;99.90
8896;DHT22;4484;48.928;10.066;2023-12-29T03:44:08;8.10;99.90
8896;DHT22;4484;48.928;10.066;2023-12-29T03:46:35;8.10;99.90
8896;DHT22;4484;48.928;10.066;2023-12-29T03:49:02;8.10;99.90
8896;DHT22;4484;48.928;10.066;2023-12-29T03:51:30;8.00;99.90
8896;DHT22;4484;48.928;10.066;2023-12-29T03:53:56;8.00;99.90
8896;DHT22;4484;48.928;10.066;2023-12-29T03:56:25;8.10;99.90
8896;DHT22;4484;48.928;10.066;2023-12-29T03:58:52;8.20;99.90
8896;DHT22;4484;48.928;10.066;2023-12-29T04:01:19;8.10;99.90
8896;DHT22;4484;48.928;10.066;2023-12-29T04:03:47;8.10;99.90
8896;DHT22;4484;48.928;10.066;2023-12-29T04:06:14;8.10;99.90
8896;DHT22;4484;48.928;10.066;2023-12-29T04:08:41;8.10;99.90
8896;DHT22;4484;48.928;10.066;2023-12-29T04:11:07;8.10;99.90
8896;DHT22;4484;48.928;10.066;2023-12-29T04:13:35;8.10;99.90
8896;DHT22;4484;48.928;10.066;2023-12-29T04:16:02;8.10;99.90
8896;DHT22;4484;48.928;10.066;2023-12-29T04:18:29;8.10;99.90
8896;DHT22;4484;48.928;10.066;2023-12-29T04:20:56;8.10;99.90
8896;DHT22;4484;48.928;10.066;2023-12-29T04:23:23;8.10;99.90
8896;DHT22;4484;48.928;10.066;2023-12-29T04:25:50;8.00;99.90
8896;DHT22;4484;48.928;10.066;2023-12-29T04:28:16;8.10;99.90
8896;DHT22;4484;48.928;10.066;2023-12-29T04:30:43;8.10;99.90
8896;DHT22;4484;48.928;10.066;2023-12-29T04:33:11;8.00;99.90
8896;DHT22;4484;48.928;10.066;2023-12-29T04:35:38;8.00;99.90
8896;DHT22;4484;48.928;10.066;2023-12-29T04:38:05;8.00;99.90
8896;DHT22;4484;48.928;10.066;2023-12-29T04:40:33;8.00;99.90
8896;DHT22;4484;48.928;10.066;2023-12-29T04:43:00;8.00;99.90
8896;DHT22;4484;48.928;10.066;2023-12-29T04:45:27;8.10;99.90
8896;DHT22;4484;48.928;10.066;2023-12-29T04:47:55;8.10;99.90
8896;DHT22;4484;48.928;10.066;2023-12-29T04:50:22;8.10;99.90
8896;DHT22;4484;48.928;10.066;2023-12-29T04:52:49;8.10;99.90
8896;DHT22;4484;48.928;10.066;2023-12-29T04:55:16;8.00;99.90
8896;DHT22;4484;48.928;10.066;2023-12-29T04:57:43;8.00;99.90
8896;DHT22;4484;48.928;10.066;2023-12-29T05:00:11;8.00;99.90
8896;DHT22;4484;48.928;10.066;2023-12-29T05:02:38;8.00;99.90
8896;DHT22;4484;48.928;10.066;2023-12-29T05:05:05;8.00;99.90
8896;DHT22;4484;48.928;10.066;2023-12-29T05:07:32;8.00;99.90
8896;DHT22;4484;48.928;10.066;2023-12-29T05:09:59;8.00;99.90
8896;DHT22;4484;48.928;10.066;2023-12-29T05:12:26;8.00;99.90
8896;DHT22;4484;48.928;10.066;2023-12-29T05:14:53;8.00;99.90
8896;DHT22;4484;48.928;10.066;2023-12-29T05:17:20;8.00;99.90
8896;DHT22;4484;48.928;10.066;2023-12-29T05:19:47;8.00;99.90
8896;DHT22;4484;48.928;10.066;2023-12-29T05:22:14;8.00;99.90
8896;DHT22;4484;48.928;10.066;2023-12-29T05:24:44;8.00;99.90
8896;DHT22;4484;48.928;10.066;2023-12-29T05:27:12;7.90;99.90
8896;DHT22;4484;48.928;10.066;2023-12-29T05:29:39;7.90;99.90
8896;DHT22;4484;48.928;10.066;2023-12-29T05:32:06;7.90;99.90
8896;DHT22;4484;48.928;10.066;2023-12-29T05:34:33;7.90;99.90
8896;DHT22;4484;48.928;10.066;2023-12-29T05:37:00;7.90;99.90
8896;DHT22;4484;48.928;10.066;2023-12-29T05:39:27;7.80;99.90
8896;DHT22;4484;48.928;10.066;2023-12-29T05:41:55;7.90;99.90
8896;DHT22;4484;48.928;10.066;2023-12-29T05:44:22;7.90;99.90
8896;DHT22;4484;48.928;10.066;2023-12-29T05:46:49;7.90;99.90
8896;DHT22;4484;48.928;10.066;2023-12-29T05:49:17;7.90;99.90
8896;DHT22;4484;48.928;10.066;2023-12-29T05:51:45;7.80;99.90
8896;DHT22;4484;48.928;10.066;2023-12-29T05:54:12;7.80;99.90
8896;DHT22;4484;48.928;10.066;2023-12-29T05:56:39;7.70;99.90
8896;DHT22;4484;48.928;10.066;2023-12-29T05:59:05;7.70;99.90
8896;DHT22;4484;48.928;10.066;2023-12-29T06:01:32;7.70;99.90
8896;DHT22;4484;48.928;10.066;2023-12-29T06:04:00;7.70;99.90
8896;DHT22;4484;48.928;10.066;2023-12-29T06:06:27;7.60;99.90
8896;DHT22;4484;48.928;10.066;2023-12-29T06:08:54;7.60;99.90
8896;DHT22;4484;48.928;10.066;2023-12-29T06:11:21;7.60;99.90
8896;DHT22;4484;48.928;10.066;2023-12-29T06:13:48;7.60;99.90
8896;DHT22;4484;48.928;10.066;2023-12-29T06:16:21;7.60;99.90
8896;DHT22;4484;48.928;10.066;2023-12-29T06:18:49;7.50;99.90
8896;DHT22;4484;48.928;10.066;2023-12-29T06:21:16;7.50;99.90
8896;DHT22;4484;48.928;10.066;2023-12-29T06:23:44;7.40;99.90
8896;DHT22;4484;48.928;10.066;2023-12-29T06:26:18;7.40;99.90
8896;DHT22;4484;48.928;10.066;2023-12-29T06:28:48;7.50;99.90
8896;DHT22;4484;48.928;10.066;2023-12-29T06:31:17;7.40;99.90
8896;DHT22;4484;48.928;10.066;2023-12-29T06:33:44;7.40;99.90
8896;DHT22;4484;48.928;10.066;2023-12-29T06:36:12;7.40;99.90
8896;DHT22;4484;48.928;10.066;2023-12-29T06:38:38;7.40;99.90
8896;DHT22;4484;48.928;10.066;2023-12-29T06:41:06;7.40;99.90
8896;DHT22;4484;48.928;10.066;2023-12-29T06:43:33;7.40;99.90
8896;DHT22;4484;48.928;10.066;2023-12-29T06:46:00;7.40;99.90
8896;DHT22;4484;48.928;10.066;2023-12-29T06:48:27;7.40;99.90
8896;DHT22;4484;48.928;10.066;2023-12-29T06:50:54;7.40;99.90
8896;DHT22;4484;48.928;10.066;2023-12-29T06:53:21;7.40;99.90
8896;DHT22;4484;48.928;10.066;2023-12-29T06:55:48;7.40;99.90
8896;DHT22;4484;48.928;10.066;2023-12-29T06:58:16;7.40;99.90
8896;DHT22;4484;48.928;10.066;2023-12-29T07:00:43;7.40;99.90
8896;DHT22;4484;48.928;10.066;2023-12-29T07:03:14;7.40;99.90
8896;DHT22;4484;48.928;10.066;2023-12-29T07:05:42;7.40;99.90
8896;DHT22;4484;48.928;10.066;2023-12-29T07:08:12;7.30;99.90
8896;DHT22;4484;48.928;10.066;2023-12-29T07:10:39;7.40;99.90
8896;DHT22;4484;48.928;10.066;2023-12-29T07:13:06;7.30;99.90
8896;DHT22;4484;48.928;10.066;2023-12-29T07:15:33;7.30;99.90
8896;DHT22;4484;48.928;10.066;2023-12-29T07:18:00;7.30;99.90
8896;DHT22;4484;48.928;10.066;2023-12-29T07:20:27;7.20;99.90
8896;DHT22;4484;48.928;10.066;2023-12-29T07:22:55;7.20;99.90
8896;DHT22;4484;48.928;10.066;2023-12-29T07:25:22;7.20;99.90
8896;DHT22;4484;48.928;10.066;2023-12-29T07:27:49;7.20;99.90
8896;DHT22;4484;48.928;10.066;2023-12-29T07:30:16;7.20;99.90
8896;DHT22;4484;48.928;10.066;2023-12-29T07:32:43;7.20;99.90
8896;DHT22;4484;48.928;10.066;2023-12-29T07:35:10;7.20;99.90
8896;DHT22;4484;48.928;10.066;2023-12-29T07:37:37;7.20;99.90
8896;DHT22;4484;48.928;10.066;2023-12-29T07:40:04;7.20;99.90
8896;DHT22;4484;48.928;10.066;2023-12-29T07:42:31;7.20;99.90
8896;DHT22;4484;48.928;10.066;2023-12-29T07:44:59;7.20;99.90
8896;DHT22;4484;48.928;10.066;2023-12-29T07:47:26;7.30;99.90
8896;DHT22;4484;48.928;10.066;2023-12-29T07:49:53;7.30;99.90
8896;DHT22;4484;48.928;10.066;2023-12-29T07:52:20;7.30;99.90
8896;DHT22;4484;48.928;10.066;2023-12-29T07:54:47;7.40;99.90
8896;DHT22;4484;48.928;10.066;2023-12-29T07:57:14;7.40;99.90
8896;DHT22;4484;48.928;10.066;2023-12-29T07:59:41;7.50;99.90
8896;DHT22;4484;48.928;10.066;2023-12-29T08:02:08;7.60;99.90
8896;DHT22;4484;48.928;10.066;2023-12-29T08:04:35;7.60;99.90
8896;DHT22;4484;48.928;10.066;2023-12-29T08:07:02;7.60;99.90
8896;DHT22;4484;48.928;10.066;2023-12-29T08:09:30;7.70;99.90
8896;DHT22;4484;48.928;10.066;2023-12-29T08:11:57;7.70;99.90
8896;DHT22;4484;48.928;10.066;2023-12-29T08:14:23;7.70;99.90
8896;DHT22;4484;48.928;10.066;2023-12-29T08:16:50;7.80;99.90
8896;DHT22;4484;48.928;10.066;2023-12-29T08:19:17;7.90;99.90
8896;DHT22;4484;48.928;10.066;2023-12-29T08:21:44;8.00;99.90
8896;DHT22;4484;48.928;10.066;2023-12-29T08:24:11;8.00;99.90
8896;DHT22;4484;48.928;10.066;2023-12-29T08:26:45;8.00;99.90
8896;DHT22;4484;48.928;10.066;2023-12-29T08:29:13;8.00;99.90
8896;DHT22;4484;48.928;10.066;2023-12-29T08:31:42;8.10;99.90
8896;DHT22;4484;48.928;10.066;2023-12-29T08:34:10;8.20;99.90
8896;DHT22;4484;48.928;10.066;2023-12-29T08:36:37;8.20;99.90
8896;DHT22;4484;48.928;10.066;2023-12-29T08:39:04;8.20;99.90
8896;DHT22;4484;48.928;10.066;2023-12-29T08:41:30;8.20;99.90
8896;DHT22;4484;48.928;10.066;2023-12-29T08:43:57;8.30;99.90
8896;DHT22;4484;48.928;10.066;2023-12-29T08:46:24;8.30;99.90
8896;DHT22;4484;48.928;10.066;2023-12-29T08:48:52;8.40;99.90
8896;DHT22;4484;48.928;10.066;2023-12-29T08:51:19;8.40;99.90
8896;DHT22;4484;48.928;10.066;2023-12-29T08:53:45;8.50;99.90
8896;DHT22;4484;48.928;10.066;2023-12-29T08:56:12;8.50;99.90
8896;DHT22;4484;48.928;10.066;2023-12-29T08:58:40;8.50;99.90
8896;DHT22;4484;48.928;10.066;2023-12-29T09:01:08;8.60;99.90
8896;DHT22;4484;48.928;10.066;2023-12-29T09:03:35;8.60;99.90
8896;DHT22;4484;48.928;10.066;2023-12-29T09:06:02;8.60;99.90
8896;DHT22;4484;48.928;10.066;2023-12-29T09:08:30;8.70;99.90
8896;DHT22;4484;48.928;10.066;2023-12-29T09:10:57;8.70;99.90
8896;DHT22;4484;48.928;10.066;2023-12-29T09:13:24;8.70;99.90
8896;DHT22;4484;48.928;10.066;2023-12-29T09:15:54;8.70;99.90
8896;DHT22;4484;48.928;10.066;2023-12-29T09:18:21;8.70;99.90
8896;DHT22;4484;48.928;10.066;2023-12-29T09:20:48;8.70;99.90
8896;DHT22;4484;48.928;10.066;2023-12-29T09:23:16;8.70;99.90
8896;DHT22;4484;48.928;10.066;2023-12-29T09:25:43;8.80;99.90
8896;DHT22;4484;48.928;10.066;2023-12-29T09:28:10;8.80;99.90
8896;DHT22;4484;48.928;10.066;2023-12-29T09:30:36;8.80;99.90
8896;DHT22;4484;48.928;10.066;2023-12-29T09:33:04;8.70;99.90
8896;DHT22;4484;48.928;10.066;2023-12-29T09:35:31;8.80;99.90
8896;DHT22;4484;48.928;10.066;2023-12-29T09:38:01;8.70;99.90
8896;DHT22;4484;48.928;10.066;2023-12-29T09:40:28;8.70;99.90
8896;DHT22;4484;48.928;10.066;2023-12-29T09:42:55;8.70;99.90
8896;DHT22;4484;48.928;10.066;2023-12-29T09:45:26;8.80;99.90
8896;DHT22;4484;48.928;10.066;2023-12-29T09:47:54;8.80;99.90
8896;DHT22;4484;48.928;10.066;2023-12-29T09:50:24;8.90;99.90
8896;DHT22;4484;48.928;10.066;2023-12-29T09:52:53;9.00;99.90
8896;DHT22;4484;48.928;10.066;2023-12-29T09:55:20;9.10;99.90
8896;DHT22;4484;48.928;10.066;2023-12-29T09:57:48;9.10;99.90
8896;DHT22;4484;48.928;10.066;2023-12-29T10:00:17;9.10;99.90
8896;DHT22;4484;48.928;10.066;2023-12-29T10:02:44;9.10;99.90
8896;DHT22;4484;48.928;10.066;2023-12-29T10:05:11;9.10;99.90
8896;DHT22;4484;48.928;10.066;2023-12-29T10:07:39;9.10;99.90
8896;DHT22;4484;48.928;10.066;2023-12-29T10:10:07;9.10;99.90
8896;DHT22;4484;48.928;10.066;2023-12-29T10:12:36;9.00;99.90
8896;DHT22;4484;48.928;10.066;2023-12-29T10:17:43;9.10;99.90
8896;DHT22;4484;48.928;10.066;2023-12-29T10:23:04;9.20;99.90
8896;DHT22;4484;48.928;10.066;2023-12-29T10:25:33;9.30;99.90
8896;DHT22;4484;48.928;10.066;2023-12-29T10:28:00;9.40;99.90
8896;DHT22;4484;48.928;10.066;2023-12-29T10:30:28;9.60;99.90
8896;DHT22;4484;48.928;10.066;2023-12-29T10:33:01;9.50;99.90
8896;DHT22;4484;48.928;10.066;2023-12-29T10:35:31;9.50;99.90
8896;DHT22;4484;48.928;10.066;2023-12-29T10:38:13;9.50;99.90
8896;DHT22;4484;48.928;10.066;2023-12-29T10:40:40;9.50;99.90
8896;DHT22;4484;48.928;10.066;2023-12-29T10:43:09;9.50;99.90
8896;DHT22;4484;48.928;10.066;2023-12-29T10:45:37;9.60;99.90
8896;DHT22;4484;48.928;10.066;2023-12-29T10:48:05;9.70;99.90
8896;DHT22;4484;48.928;10.066;2023-12-29T10:50:43;10.00;99.90
8896;DHT22;4484;48.928;10.066;2023-12-29T10:53:16;10.20;99.90
8896;DHT22;4484;48.928;10.066;2023-12-29T10:55:45;10.30;99.90
8896;DHT22;4484;48.928;10.066;2023-12-29T10:58:16;10.40;99.90
8896;DHT22;4484;48.928;10.066;2023-12-29T11:00:44;10.60;99.90
8896;DHT22;4484;48.928;10.066;2023-12-29T11:03:17;10.70;99.90
8896;DHT22;4484;48.928;10.066;2023-12-29T11:05:44;10.80;99.90
8896;DHT22;4484;48.928;10.066;2023-12-29T11:08:21;10.90;99.90
8896;DHT22;4484;48.928;10.066;2023-12-29T11:10:49;10.90;99.90
8896;DHT22;4484;48.928;10.066;2023-12-29T11:13:16;10.90;99.90
8896;DHT22;4484;48.928;10.066;2023-12-29T11:15:47;11.10;99.90
8896;DHT22;4484;48.928;10.066;2023-12-29T11:18:15;11.10;99.90
8896;DHT22;4484;48.928;10.066;2023-12-29T11:20:44;11.10;99.90
8896;DHT22;4484;48.928;10.066;2023-12-29T11:23:11;11.00;99.90
8896;DHT22;4484;48.928;10.066;2023-12-29T11:25:44;10.90;99.90
8896;DHT22;4484;48.928;10.066;2023-12-29T11:28:13;10.80;99.90
8896;DHT22;4484;48.928;10.066;2023-12-29T11:30:40;10.60;99.90
8896;DHT22;4484;48.928;10.066;2023-12-29T11:33:17;10.50;99.90
8896;DHT22;4484;48.928;10.066;2023-12-29T11:35:50;10.50;99.90
8896;DHT22;4484;48.928;10.066;2023-12-29T11:38:33;10.40;99.90
8896;DHT22;4484;48.928;10.066;2023-12-29T11:44:11;10.40;99.90
8896;DHT22;4484;48.928;10.066;2023-12-29T11:46:40;10.70;99.90
8896;DHT22;4484;48.928;10.066;2023-12-29T11:49:10;10.90;99.90
8896;DHT22;4484;48.928;10.066;2023-12-29T11:51:46;11.00;99.90
8896;DHT22;4484;48.928;10.066;2023-12-29T11:54:26;11.10;99.90
8896;DHT22;4484;48.928;10.066;2023-12-29T11:56:54;11.20;99.90
8896;DHT22;4484;48.928;10.066;2023-12-29T11:59:22;11.50;99.90
8896;DHT22;4484;48.928;10.066;2023-12-29T12:01:51;11.70;99.90
8896;DHT22;4484;48.928;10.066;2023-12-29T12:04:37;11.90;99.90
8896;DHT22;4484;48.928;10.066;2023-12-29T12:09:50;11.90;99.90
8896;DHT22;4484;48.928;10.066;2023-12-29T12:12:40;11.80;99.90
8896;DHT22;4484;48.928;10.066;2023-12-29T12:17:55;11.80;99.90
8896;DHT22;4484;48.928;10.066;2023-12-29T12:20:22;11.80;99.90
8896;DHT22;4484;48.928;10.066;2023-12-29T12:25:30;11.60;99.90
8896;DHT22;4484;48.928;10.066;2023-12-29T12:28:05;11.30;99.90
8896;DHT22;4484;48.928;10.066;2023-12-29T12:30:33;11.30;99.90
8896;DHT22;4484;48.928;10.066;2023-12-29T12:33:04;11.30;99.90
8896;DHT22;4484;48.928;10.066;2023-12-29T12:35:32;11.10;99.90
8896;DHT22;4484;48.928;10.066;2023-12-29T12:38:17;11.10;99.90
8896;DHT22;4484;48.928;10.066;2023-12-29T12:40:48;11.20;99.90
8896;DHT22;4484;48.928;10.066;2023-12-29T12:43:15;11.10;99.90
8896;DHT22;4484;48.928;10.066;2023-12-29T12:45:48;11.30;99.90
8896;DHT22;4484;48.928;10.066;2023-12-29T12:48:41;11.50;99.90
8896;DHT22;4484;48.928;10.066;2023-12-29T12:51:10;11.70;99.90
8896;DHT22;4484;48.928;10.066;2023-12-29T12:53:42;11.80;99.90
8896;DHT22;4484;48.928;10.066;2023-12-29T12:56:11;12.10;99.90
8896;DHT22;4484;48.928;10.066;2023-12-29T12:58:38;12.30;99.90
8896;DHT22;4484;48.928;10.066;2023-12-29T13:01:05;12.30;99.90
8896;DHT22;4484;48.928;10.066;2023-12-29T13:03:33;12.20;99.90
8896;DHT22;4484;48.928;10.066;2023-12-29T13:06:00;12.10;99.90
8896;DHT22;4484;48.928;10.066;2023-12-29T13:08:28;11.90;99.90
8896;DHT22;4484;48.928;10.066;2023-12-29T13:11:04;11.90;99.90
8896;DHT22;4484;48.928;10.066;2023-12-29T13:13:39;11.70;99.90
8896;DHT22;4484;48.928;10.066;2023-12-29T13:16:06;11.60;99.90
8896;DHT22;4484;48.928;10.066;2023-12-29T13:18:34;11.50;99.90
8896;DHT22;4484;48.928;10.066;2023-12-29T13:21:02;11.50;99.90
8896;DHT22;4484;48.928;10.066;2023-12-29T13:23:31;11.60;99.90
8896;DHT22;4484;48.928;10.066;2023-12-29T13:26:01;11.70;99.90
8896;DHT22;4484;48.928;10.066;2023-12-29T13:28:29;11.80;99.90
8896;DHT22;4484;48.928;10.066;2023-12-29T13:30:57;11.80;99.90
8896;DHT22;4484;48.928;10.066;2023-12-29T13:34:01;11.60;99.90
8896;DHT22;4484;48.928;10.066;2023-12-29T13:36:43;11.50;99.90
8896;DHT22;4484;48.928;10.066;2023-12-29T13:39:41;11.30;99.90
8896;DHT22;4484;48.928;10.066;2023-12-29T13:42:10;11.20;99.90
8896;DHT22;4484;48.928;10.066;2023-12-29T13:44:41;11.10;99.90
8896;DHT22;4484;48.928;10.066;2023-12-29T13:47:09;11.00;99.90
8896;DHT22;4484;48.928;10.066;2023-12-29T13:49:37;10.90;99.90
8896;DHT22;4484;48.928;10.066;2023-12-29T13:52:05;10.80;99.90
8896;DHT22;4484;48.928;10.066;2023-12-29T13:54:41;10.70;99.90
8896;DHT22;4484;48.928;10.066;2023-12-29T13:57:09;10.60;99.90
8896;DHT22;4484;48.928;10.066;2023-12-29T13:59:36;10.50;99.90
8896;DHT22;4484;48.928;10.066;2023-12-29T14:04:47;10.40;99.90
8896;DHT22;4484;48.928;10.066;2023-12-29T14:07:14;10.30;99.90
8896;DHT22;4484;48.928;10.066;2023-12-29T14:09:46;10.30;99.90
8896;DHT22;4484;48.928;10.066;2023-12-29T14:12:13;10.20;99.90
8896;DHT22;4484;48.928;10.066;2023-12-29T14:14:39;10.10;99.90
8896;DHT22;4484;48.928;10.066;2023-12-29T14:17:07;10.10;99.90
8896;DHT22;4484;48.928;10.066;2023-12-29T14:19:35;10.00;99.90
8896;DHT22;4484;48.928;10.066;2023-12-29T14:22:03;10.00;99.90
8896;DHT22;4484;48.928;10.066;2023-12-29T14:24:30;10.00;99.90
8896;DHT22;4484;48.928;10.066;2023-12-29T14:26:57;10.00;99.90
8896;DHT22;4484;48.928;10.066;2023-12-29T14:29:26;10.00;99.90
8896;DHT22;4484;48.928;10.066;2023-12-29T14:31:53;9.90;99.90
8896;DHT22;4484;48.928;10.066;2023-12-29T14:34:23;9.90;99.90
8896;DHT22;4484;48.928;10.066;2023-12-29T14:36:50;9.80;99.90
8896;DHT22;4484;48.928;10.066;2023-12-29T14:39:17;9.70;99.90
8896;DHT22;4484;48.928;10.066;2023-12-29T14:41:44;9.70;99.90
8896;DHT22;4484;48.928;10.066;2023-12-29T14:44:12;9.70;99.90
8896;DHT22;4484;48.928;10.066;2023-12-29T14:46:39;9.60;99.90
8896;DHT22;4484;48.928;10.066;2023-12-29T14:49:07;9.60;99.90
8896;DHT22;4484;48.928;10.066;2023-12-29T14:51:34;9.60;99.90
8896;DHT22;4484;48.928;10.066;2023-12-29T14:54:01;9.50;99.90
8896;DHT22;4484;48.928;10.066;2023-12-29T14:56:30;9.50;99.90
8896;DHT22;4484;48.928;10.066;2023-12-29T14:58:57;9.40;99.90
8896;DHT22;4484;48.928;10.066;2023-12-29T15:01:24;9.50;99.90
8896;DHT22;4484;48.928;10.066;2023-12-29T15:03:52;9.50;99.90
8896;DHT22;4484;48.928;10.066;2023-12-29T15:06:19;9.50;99.90
8896;DHT22;4484;48.928;10.066;2023-12-29T15:08:46;9.50;99.90
8896;DHT22;4484;48.928;10.066;2023-12-29T15:11:13;9.50;99.90
8896;DHT22;4484;48.928;10.066;2023-12-29T15:13:40;9.50;99.90
8896;DHT22;4484;48.928;10.066;2023-12-29T15:16:06;9.50;99.90
8896;DHT22;4484;48.928;10.066;2023-12-29T15:18:34;9.40;99.90
8896;DHT22;4484;48.928;10.066;2023-12-29T15:21:01;9.40;99.90
8896;DHT22;4484;48.928;10.066;2023-12-29T15:23:28;9.40;99.90
8896;DHT22;4484;48.928;10.066;2023-12-29T15:25:55;9.40;99.90
8896;DHT22;4484;48.928;10.066;2023-12-29T15:28:22;9.40;99.90
8896;DHT22;4484;48.928;10.066;2023-12-29T15:30:50;9.40;99.90
8896;DHT22;4484;48.928;10.066;2023-12-29T15:33:17;9.30;99.90
8896;DHT22;4484;48.928;10.066;2023-12-29T15:35:46;9.30;99.90
8896;DHT22;4484;48.928;10.066;2023-12-29T15:38:13;9.30;99.90
8896;DHT22;4484;48.928;10.066;2023-12-29T15:40:40;9.30;99.90
8896;DHT22;4484;48.928;10.066;2023-12-29T15:43:07;9.20;99.90
8896;DHT22;4484;48.928;10.066;2023-12-29T15:45:37;9.10;99.90
8896;DHT22;4484;48.928;10.066;2023-12-29T15:48:04;9.00;99.90
8896;DHT22;4484;48.928;10.066;2023-12-29T15:50:32;8.90;99.90
8896;DHT22;4484;48.928;10.066;2023-12-29T15:52:59;8.80;99.90
8896;DHT22;4484;48.928;10.066;2023-12-29T15:55:26;8.70;99.90
8896;DHT22;4484;48.928;10.066;2023-12-29T15:57:53;8.60;99.90
8896;DHT22;4484;48.928;10.066;2023-12-29T16:00:20;8.60;99.90
8896;DHT22;4484;48.928;10.066;2023-12-29T16:02:47;8.50;99.90
8896;DHT22;4484;48.928;10.066;2023-12-29T16:05:14;8.40;99.90
8896;DHT22;4484;48.928;10.066;2023-12-29T16:07:41;8.30;99.90
8896;DHT22;4484;48.928;10.066;2023-12-29T16:10:08;8.20;99.90
8896;DHT22;4484;48.928;10.066;2023-12-29T16:12:36;8.20;99.90
8896;DHT22;4484;48.928;10.066;2023-12-29T16:15:03;8.10;99.90
8896;DHT22;4484;48.928;10.066;2023-12-29T16:17:30;8.00;99.90
8896;DHT22;4484;48.928;10.066;2023-12-29T16:19:57;7.90;99.90
8896;DHT22;4484;48.928;10.066;2023-12-29T16:22:24;7.90;99.90
8896;DHT22;4484;48.928;10.066;2023-12-29T16:24:51;7.80;99.90
8896;DHT22;4484;48.928;10.066;2023-12-29T16:27:18;7.80;99.90